Time;durP1;ratioP1;P1;durP2;ratioP2;P2;SDS_P1;SDS_P2;PMS_P1;PMS_P2;Temp;Humidity;BMP_temperature;BMP_pressure;BME280_temperature;BME280_humidity;BME280_pressure;Samples;Min_cycle;Max_cycle;Signal;HPM_P1;HPM_P2
2022/04/30 00:00:37;;;;;;;24.10;19.37;;;10.40;99.90;;;;;;5069894;28;20226;-50
2022/04/30 00:03:05;;;;;;;21.60;17.40;;;10.30;99.90;;;;;;5068281;28;20221;-51
2022/04/30 00:05:34;;;;;;;21.93;17.53;;;10.20;99.90;;;;;;5069034;28;20282;-50
2022/04/30 00:08:04;;;;;;;20.33;16.23;;;10.20;99.90;;;;;;5068246;28;20581;-51
2022/04/30 00:10:37;;;;;;;22.50;17.07;;;10.10;99.90;;;;;;5069316;28;20214;-51
2022/04/30 00:13:10;;;;;;;22.10;17.27;;;10.10;99.90;;;;;;5068875;28;20610;-50
2022/04/30 00:15:39;;;;;;;20.80;17.17;;;10.00;99.90;;;;;;5069128;28;20255;-51
2022/04/30 00:18:07;;;;;;;19.57;16.13;;;10.00;99.90;;;;;;5069815;28;20322;-51
2022/04/30 00:20:37;;;;;;;22.63;18.93;;;10.10;99.90;;;;;;5062616;28;20260;-50
2022/04/30 00:23:06;;;;;;;21.53;16.63;;;10.10;99.90;;;;;;5060654;28;20282;-51
2022/04/30 00:25:34;;;;;;;23.83;18.80;;;10.10;99.90;;;;;;5068299;28;20221;-51
2022/04/30 00:28:02;;;;;;;23.17;17.57;;;10.10;99.90;;;;;;5067165;28;20201;-51
2022/04/30 00:30:31;;;;;;;20.70;15.80;;;10.10;99.90;;;;;;5066859;28;20201;-51
2022/04/30 00:33:00;;;;;;;20.57;16.17;;;10.10;99.90;;;;;;5067923;28;20216;-50
2022/04/30 00:35:28;;;;;;;19.50;17.40;;;10.10;99.90;;;;;;5067858;28;20231;-50
2022/04/30 00:37:56;;;;;;;18.40;14.93;;;10.00;99.90;;;;;;5069509;28;20235;-50
2022/04/30 00:40:24;;;;;;;20.00;16.13;;;10.00;99.90;;;;;;5069722;28;20198;-50
2022/04/30 00:42:53;;;;;;;18.53;14.77;;;9.90;99.90;;;;;;5067534;28;20230;-50
2022/04/30 00:45:21;;;;;;;18.13;15.43;;;10.00;99.90;;;;;;5068420;28;20473;-50
2022/04/30 00:47:51;;;;;;;19.80;16.10;;;9.90;99.90;;;;;;5069210;28;20205;-51
2022/04/30 00:50:22;;;;;;;18.97;15.40;;;9.80;99.90;;;;;;5069995;28;20210;-50
2022/04/30 00:52:52;;;;;;;19.93;15.60;;;9.70;99.90;;;;;;5067704;28;20196;-50
2022/04/30 00:55:22;;;;;;;20.33;14.87;;;9.60;99.90;;;;;;5068424;28;20767;-50
2022/04/30 00:57:55;;;;;;;17.03;14.53;;;9.60;99.90;;;;;;5068912;28;20202;-51
2022/04/30 01:00:25;;;;;;;19.83;16.07;;;9.60;99.90;;;;;;5064126;28;20196;-51
2022/04/30 01:02:54;;;;;;;21.63;17.83;;;9.60;99.90;;;;;;5064253;28;20233;-50
2022/04/30 01:05:22;;;;;;;26.37;19.67;;;9.60;99.90;;;;;;5068906;28;20298;-50
2022/04/30 01:07:52;;;;;;;20.03;16.03;;;9.60;99.90;;;;;;5068123;28;20628;-50
2022/04/30 01:10:21;;;;;;;17.00;13.67;;;9.60;99.90;;;;;;5067909;28;20271;-50
2022/04/30 01:12:49;;;;;;;14.30;12.80;;;9.60;99.90;;;;;;5067336;28;20630;-50
2022/04/30 01:15:19;;;;;;;18.23;14.20;;;9.60;99.90;;;;;;5068769;28;20221;-50
2022/04/30 01:17:47;;;;;;;17.13;14.77;;;9.60;99.90;;;;;;5068548;28;20213;-50
2022/04/30 01:20:17;;;;;;;18.50;15.30;;;9.60;99.90;;;;;;5062470;28;20662;-50
2022/04/30 01:23:05;;;;;;;19.37;13.93;;;9.60;99.90;;;;;;5068919;28;20274;-50
2022/04/30 01:25:34;;;;;;;14.70;10.97;;;9.60;99.90;;;;;;5072087;28;20293;-51
2022/04/30 01:28:03;;;;;;;13.53;11.20;;;9.50;99.90;;;;;;5070154;28;20268;-51
2022/04/30 01:30:31;;;;;;;13.40;10.93;;;9.50;99.90;;;;;;5071819;28;20280;-51
2022/04/30 01:38:34;;;;;;;11.63;9.37;;;9.30;99.90;;;;;;5071660;28;20261;-51
2022/04/30 01:41:02;;;;;;;13.60;10.30;;;9.40;99.90;;;;;;5071907;28;20771;-50
2022/04/30 01:43:33;;;;;;;13.50;10.60;;;9.30;99.90;;;;;;5071437;28;20763;-50
2022/04/30 01:46:02;;;;;;;13.73;10.70;;;9.10;99.90;;;;;;5069093;28;20224;-50
2022/04/30 01:48:31;;;;;;;15.27;11.50;;;9.10;99.90;;;;;;5070130;28;20201;-49
2022/04/30 01:51:00;;;;;;;17.00;12.43;;;9.10;99.90;;;;;;5069172;28;20201;-51
2022/04/30 01:53:28;;;;;;;17.23;12.70;;;8.90;99.90;;;;;;5070678;28;20254;-50
2022/04/30 01:55:58;;;;;;;16.90;12.80;;;8.90;99.90;;;;;;5071915;28;20275;-50
2022/04/30 01:58:26;;;;;;;17.17;12.77;;;8.90;99.90;;;;;;5066858;28;20197;-49
2022/04/30 02:00:55;;;;;;;17.90;14.53;;;9.00;99.90;;;;;;5071068;28;20200;-50
2022/04/30 02:03:29;;;;;;;19.97;13.97;;;9.00;99.90;;;;;;5070557;28;20221;-50
2022/04/30 02:05:58;;;;;;;19.53;13.50;;;9.00;99.90;;;;;;5069715;28;20280;-50
2022/04/30 02:08:27;;;;;;;18.30;14.97;;;9.00;99.90;;;;;;5070813;28;20200;-49
2022/04/30 02:10:57;;;;;;;17.93;14.30;;;9.00;99.90;;;;;;5070954;28;20673;-50
2022/04/30 02:13:28;;;;;;;15.73;13.70;;;9.00;99.90;;;;;;5065294;28;20193;-50
2022/04/30 02:15:57;;;;;;;18.97;14.13;;;9.10;99.90;;;;;;5070553;28;20230;-50
2022/04/30 02:18:26;;;;;;;17.13;13.83;;;9.10;99.90;;;;;;5071230;28;20228;-50
2022/04/30 02:20:55;;;;;;;18.27;14.53;;;9.10;99.90;;;;;;5065615;28;20211;-50
2022/04/30 02:23:24;;;;;;;16.70;13.40;;;9.10;99.90;;;;;;5066980;28;20220;-50
2022/04/30 02:25:53;;;;;;;18.73;13.93;;;9.10;99.90;;;;;;5069497;28;20229;-50
2022/04/30 02:28:23;;;;;;;18.07;13.33;;;9.10;99.90;;;;;;5070449;28;20270;-49
2022/04/30 02:30:52;;;;;;;17.20;13.80;;;9.20;99.90;;;;;;5065568;28;20250;-51
2022/04/30 02:33:21;;;;;;;18.30;13.93;;;9.20;99.90;;;;;;5069055;28;20266;-50
2022/04/30 02:35:49;;;;;;;16.50;13.40;;;9.10;99.90;;;;;;5070787;28;20274;-50
2022/04/30 02:38:19;;;;;;;15.87;13.77;;;9.10;99.90;;;;;;5065824;28;20209;-50
2022/04/30 02:40:47;;;;;;;16.37;13.40;;;9.10;99.90;;;;;;5064812;28;20200;-50
2022/04/30 02:43:18;;;;;;;15.90;13.67;;;9.10;99.90;;;;;;5065014;28;20219;-51
2022/04/30 02:45:49;;;;;;;18.73;14.17;;;9.10;99.90;;;;;;5070126;28;20228;-50
2022/04/30 02:48:17;;;;;;;18.03;14.03;;;9.00;99.90;;;;;;5070553;28;20334;-50
2022/04/30 02:50:45;;;;;;;15.40;13.20;;;9.00;99.90;;;;;;5070553;28;20666;-51
2022/04/30 02:53:13;;;;;;;19.57;14.83;;;8.90;99.90;;;;;;5066180;28;20201;-51
2022/04/30 02:55:41;;;;;;;19.00;14.87;;;8.80;99.90;;;;;;5070047;28;20229;-50
2022/04/30 03:00:57;;;;;;;19.00;15.13;;;8.80;99.90;;;;;;5071201;28;20619;-51
2022/04/30 03:03:29;;;;;;;18.00;14.17;;;8.70;99.90;;;;;;5071749;28;20220;-50
2022/04/30 03:05:58;;;;;;;20.50;15.00;;;8.80;99.90;;;;;;5072339;28;20229;-50
2022/04/30 03:08:27;;;;;;;19.23;15.30;;;8.70;99.90;;;;;;5071227;28;20224;-50
2022/04/30 03:10:57;;;;;;;18.33;14.90;;;8.70;99.90;;;;;;5052109;28;20216;-49
2022/04/30 03:13:25;;;;;;;21.37;15.03;;;8.80;99.90;;;;;;5051432;28;20289;-50
2022/04/30 03:21:41;;;;;;;17.80;15.07;;;8.70;99.90;;;;;;5051871;28;20653;-50
2022/04/30 03:21:44;;;;;;;19.50;15.03;;;8.60;99.90;;;;;;5051795;28;20205;-51
2022/04/30 03:24:15;;;;;;;21.97;15.07;;;8.60;99.90;;;;;;5051566;28;20213;-50
2022/04/30 03:26:44;;;;;;;18.70;15.27;;;8.50;99.90;;;;;;5051807;28;20266;-51
2022/04/30 03:29:12;;;;;;;18.63;15.23;;;8.60;99.90;;;;;;5051886;28;20527;-50
2022/04/30 03:31:42;;;;;;;20.13;14.90;;;8.60;99.90;;;;;;5051228;28;20202;-51
2022/04/30 03:34:12;;;;;;;18.27;14.50;;;8.50;99.90;;;;;;5051728;28;20228;-50
2022/04/30 03:36:40;;;;;;;19.23;14.80;;;8.60;99.90;;;;;;5050818;28;20235;-50
2022/04/30 03:39:09;;;;;;;21.17;15.43;;;8.60;99.90;;;;;;5051677;28;20259;-51
2022/04/30 03:41:37;;;;;;;15.97;13.73;;;8.50;99.90;;;;;;5061360;28;20201;-51
2022/04/30 03:44:07;;;;;;;18.23;14.90;;;8.50;99.90;;;;;;5086690;28;20232;-50
2022/04/30 03:46:36;;;;;;;18.83;13.40;;;8.50;99.90;;;;;;5073530;28;20787;-51
2022/04/30 03:49:06;;;;;;;19.77;14.93;;;8.50;99.90;;;;;;5070995;28;20227;-50
2022/04/30 03:51:34;;;;;;;18.13;14.87;;;8.60;99.90;;;;;;5071358;28;20205;-50
2022/04/30 03:54:02;;;;;;;17.83;14.43;;;8.60;99.90;;;;;;5070184;28;20213;-50
2022/04/30 03:56:31;;;;;;;19.77;14.70;;;8.60;99.90;;;;;;5070703;28;20224;-51
2022/04/30 03:58:59;;;;;;;18.13;14.67;;;8.60;99.90;;;;;;5071035;28;20259;-51
2022/04/30 04:01:27;;;;;;;19.37;15.57;;;8.60;99.90;;;;;;5071334;28;20206;-50
2022/04/30 04:03:55;;;;;;;17.37;13.67;;;8.50;99.90;;;;;;5070591;28;20855;-50
2022/04/30 04:06:25;;;;;;;20.70;14.50;;;8.70;99.90;;;;;;5070612;28;20637;-51
2022/04/30 04:08:53;;;;;;;21.10;15.17;;;8.80;99.90;;;;;;5070680;28;20210;-50
2022/04/30 04:11:23;;;;;;;16.90;14.40;;;8.70;99.90;;;;;;5070837;28;20205;-50
2022/04/30 04:19:25;;;;;;;15.97;12.40;;;8.70;99.90;;;;;;5071173;28;20251;-50
2022/04/30 04:21:56;;;;;;;14.50;12.20;;;8.70;99.90;;;;;;5070369;28;20209;-50
2022/04/30 04:27:10;;;;;;;15.70;12.90;;;8.60;99.90;;;;;;5071024;28;20316;-51
2022/04/30 04:29:44;;;;;;;16.37;12.93;;;8.50;99.90;;;;;;5069780;28;20224;-49
2022/04/30 04:32:12;;;;;;;15.87;12.80;;;8.50;99.90;;;;;;5070532;28;20205;-50
2022/04/30 04:34:40;;;;;;;15.80;12.97;;;8.60;99.90;;;;;;5070893;28;20208;-50
2022/04/30 04:37:16;;;;;;;14.43;12.43;;;8.60;99.90;;;;;;5070587;28;20231;-50
2022/04/30 04:39:44;;;;;;;15.13;12.97;;;8.60;99.90;;;;;;5070687;28;20200;-50
2022/04/30 04:42:12;;;;;;;15.67;12.63;;;8.60;99.90;;;;;;5070357;28;20208;-51
2022/04/30 04:44:41;;;;;;;13.97;12.20;;;8.60;99.90;;;;;;5070765;28;20221;-50
2022/04/30 04:47:09;;;;;;;15.30;12.20;;;8.60;99.90;;;;;;5070242;28;20269;-48
2022/04/30 04:49:38;;;;;;;14.13;12.60;;;8.60;99.90;;;;;;5070696;28;20258;-50
2022/04/30 04:52:06;;;;;;;19.23;13.53;;;8.60;99.90;;;;;;5070153;28;20281;-50
2022/04/30 04:54:36;;;;;;;13.47;11.50;;;8.50;99.90;;;;;;5070393;28;20678;-50
2022/04/30 04:57:04;;;;;;;15.07;11.07;;;8.50;99.90;;;;;;5070502;28;20262;-50
2022/04/30 04:59:32;;;;;;;14.43;11.70;;;8.50;99.90;;;;;;5060914;28;20258;-50
2022/04/30 05:02:02;;;;;;;13.63;10.93;;;8.50;99.90;;;;;;5070832;28;20740;-50
2022/04/30 05:04:31;;;;;;;12.50;11.20;;;8.50;99.90;;;;;;5074053;28;20224;-49
2022/04/30 05:07:00;;;;;;;15.17;12.03;;;8.40;99.90;;;;;;5073565;28;20724;-50
2022/04/30 05:09:28;;;;;;;14.43;11.40;;;8.40;99.90;;;;;;5073651;28;20623;-51
2022/04/30 05:12:00;;;;;;;12.40;11.10;;;8.30;99.90;;;;;;5073651;28;20258;-50
2022/04/30 05:14:31;;;;;;;13.43;10.67;;;8.30;99.90;;;;;;5056540;28;20194;-50
2022/04/30 05:16:59;;;;;;;14.33;10.93;;;8.40;99.90;;;;;;5058022;28;20793;-50
2022/04/30 05:19:33;;;;;;;15.03;12.13;;;8.30;99.90;;;;;;5066185;28;20204;-50
2022/04/30 05:22:01;;;;;;;13.57;11.17;;;8.30;99.90;;;;;;5073089;28;20219;-50
2022/04/30 05:24:30;;;;;;;14.07;11.20;;;8.40;99.90;;;;;;5073278;28;20221;-51
2022/04/30 05:27:00;;;;;;;14.30;10.60;;;8.40;99.90;;;;;;5073234;28;20223;-50
2022/04/30 05:29:28;;;;;;;14.03;11.63;;;8.50;99.90;;;;;;5068128;28;20205;-51
2022/04/30 05:31:56;;;;;;;15.00;11.60;;;8.50;99.90;;;;;;5055492;28;20259;-51
2022/04/30 05:34:24;;;;;;;14.87;11.77;;;8.50;99.90;;;;;;5053401;28;20209;-50
2022/04/30 05:36:53;;;;;;;14.27;11.90;;;8.50;99.90;;;;;;5053458;28;20279;-51
2022/04/30 05:39:21;;;;;;;14.57;11.97;;;8.50;99.90;;;;;;5072839;28;20244;-50
2022/04/30 05:41:49;;;;;;;15.53;12.67;;;8.40;99.90;;;;;;5060039;28;20283;-50
2022/04/30 05:44:19;;;;;;;18.10;12.07;;;8.40;99.90;;;;;;5066950;28;20262;-51
2022/04/30 05:46:47;;;;;;;13.47;11.57;;;8.40;99.90;;;;;;5068251;28;20241;-50
2022/04/30 05:49:15;;;;;;;18.63;12.80;;;8.40;99.90;;;;;;5067842;28;20665;-50
2022/04/30 05:51:43;;;;;;;17.67;12.53;;;8.30;99.90;;;;;;5062621;28;20205;-51
2022/04/30 05:54:12;;;;;;;15.23;12.50;;;8.30;99.90;;;;;;5069150;28;20729;-51
2022/04/30 05:56:40;;;;;;;15.03;12.30;;;8.30;99.90;;;;;;5071933;28;20217;-50
2022/04/30 05:59:08;;;;;;;14.17;11.83;;;8.30;99.90;;;;;;5071768;28;20217;-50
2022/04/30 06:01:38;;;;;;;19.20;14.43;;;8.30;99.90;;;;;;5068412;28;20214;-50
2022/04/30 06:04:06;;;;;;;14.27;12.27;;;8.40;99.90;;;;;;5069604;28;20808;-50
2022/04/30 06:06:34;;;;;;;16.10;12.97;;;8.40;99.90;;;;;;5071736;28;20236;-51
2022/04/30 06:09:02;;;;;;;17.43;12.63;;;8.50;99.90;;;;;;5072087;28;20201;-51
2022/04/30 06:11:30;;;;;;;15.60;13.00;;;8.40;99.90;;;;;;5073062;28;20205;-49
2022/04/30 06:13:59;;;;;;;18.03;13.30;;;8.40;99.90;;;;;;5071821;28;20258;-50
2022/04/30 06:16:27;;;;;;;17.23;12.30;;;8.40;99.90;;;;;;5072650;28;20232;-51
2022/04/30 06:18:56;;;;;;;16.57;13.10;;;8.30;99.90;;;;;;5072696;28;20612;-50
2022/04/30 06:21:39;;;;;;;17.60;12.73;;;8.40;99.90;;;;;;5072628;28;20294;-51
2022/04/30 06:24:07;;;;;;;16.67;12.53;;;8.40;99.90;;;;;;5072185;28;20204;-51
2022/04/30 06:26:35;;;;;;;14.90;11.70;;;8.40;99.90;;;;;;5072327;28;20230;-50
2022/04/30 06:29:04;;;;;;;16.03;12.70;;;8.50;99.90;;;;;;5072580;28;20209;-50
2022/04/30 06:31:32;;;;;;;19.63;12.90;;;8.50;99.90;;;;;;5071594;28;20277;-51
2022/04/30 06:34:01;;;;;;;16.50;12.20;;;8.40;99.90;;;;;;5072024;28;20220;-49
2022/04/30 06:36:30;;;;;;;15.50;12.20;;;8.50;99.90;;;;;;5071965;28;20689;-51
2022/04/30 06:38:58;;;;;;;15.20;11.57;;;8.50;99.90;;;;;;5071853;28;20209;-50
2022/04/30 06:41:26;;;;;;;14.43;11.90;;;8.60;99.90;;;;;;5072194;28;20201;-51
2022/04/30 06:43:54;;;;;;;13.77;11.40;;;8.60;99.90;;;;;;5071569;28;20212;-51
2022/04/30 06:46:22;;;;;;;17.70;12.33;;;8.60;99.90;;;;;;5072052;28;20274;-50
2022/04/30 06:48:51;;;;;;;18.40;11.90;;;8.70;99.90;;;;;;5071770;28;20201;-50
2022/04/30 06:51:20;;;;;;;18.40;13.60;;;8.70;99.90;;;;;;5064535;28;20289;-50
2022/04/30 06:59:19;;;;;;;15.73;12.13;;;8.80;99.90;;;;;;5071081;28;20205;-50
2022/04/30 07:01:53;;;;;;;16.93;12.23;;;8.90;99.90;;;;;;5065829;28;20198;-49
2022/04/30 07:04:22;;;;;;;15.20;11.57;;;8.90;99.90;;;;;;5071163;28;20203;-49
2022/04/30 07:06:52;;;;;;;14.87;12.07;;;8.90;99.90;;;;;;5058475;28;20294;-50
2022/04/30 07:09:20;;;;;;;16.47;12.63;;;8.90;99.90;;;;;;5071385;28;20236;-51
2022/04/30 07:11:48;;;;;;;13.80;11.40;;;8.80;99.90;;;;;;5071133;28;20205;-50
2022/04/30 07:14:16;;;;;;;17.00;11.63;;;8.80;99.90;;;;;;5070429;28;20228;-50
2022/04/30 07:16:44;;;;;;;13.53;11.23;;;8.80;99.90;;;;;;5071280;28;20283;-50
2022/04/30 07:19:12;;;;;;;15.40;11.27;;;8.80;99.90;;;;;;5071106;28;20208;-50
2022/04/30 07:21:41;;;;;;;13.57;11.13;;;8.60;99.90;;;;;;5069421;28;20197;-51
2022/04/30 07:24:10;;;;;;;15.67;11.97;;;8.70;99.90;;;;;;5067925;28;20664;-50
2022/04/30 07:26:38;;;;;;;12.77;10.80;;;8.70;99.90;;;;;;5066335;28;20286;-50
2022/04/30 07:29:06;;;;;;;15.43;11.70;;;8.60;99.90;;;;;;5067817;28;20204;-50
2022/04/30 07:31:35;;;;;;;15.70;11.83;;;8.60;99.90;;;;;;5070124;28;20201;-50
2022/04/30 07:34:04;;;;;;;13.43;11.00;;;8.70;99.90;;;;;;5069494;28;20684;-50
2022/04/30 07:36:32;;;;;;;13.87;11.63;;;8.80;99.90;;;;;;5069414;28;20266;-50
2022/04/30 07:39:00;;;;;;;13.30;11.90;;;8.80;99.90;;;;;;5069294;28;20211;-50
2022/04/30 07:41:30;;;;;;;14.63;11.37;;;8.70;99.90;;;;;;5069670;28;20641;-50
2022/04/30 07:43:59;;;;;;;15.37;11.70;;;8.80;99.90;;;;;;5070076;28;20258;-50
2022/04/30 07:46:28;;;;;;;14.07;11.30;;;8.90;99.90;;;;;;5069985;28;20290;-50
2022/04/30 07:48:56;;;;;;;15.97;11.77;;;9.00;99.90;;;;;;5071744;28;20296;-50
2022/04/30 07:51:34;;;;;;;16.70;11.37;;;8.80;99.90;;;;;;5072947;28;20197;-50
2022/04/30 07:54:03;;;;;;;16.90;11.73;;;8.90;99.90;;;;;;5069280;28;20204;-50
2022/04/30 07:56:32;;;;;;;15.10;11.77;;;8.80;99.90;;;;;;5068379;28;20217;-50
2022/04/30 07:59:01;;;;;;;14.23;11.87;;;8.80;99.90;;;;;;5070328;28;20204;-50
2022/04/30 08:01:29;;;;;;;13.07;11.63;;;8.90;99.90;;;;;;5070080;28;20262;-50
2022/04/30 08:03:57;;;;;;;16.73;11.87;;;8.90;99.90;;;;;;5070012;28;20297;-51
2022/04/30 08:06:25;;;;;;;14.53;11.63;;;9.00;99.90;;;;;;5068342;28;20865;-51
2022/04/30 08:08:53;;;;;;;13.97;11.40;;;9.10;99.90;;;;;;5065665;28;20208;-51
2022/04/30 08:11:22;;;;;;;19.93;11.97;;;9.30;99.90;;;;;;5069164;28;20898;-50
2022/04/30 08:13:51;;;;;;;18.93;12.47;;;9.40;99.90;;;;;;5069983;28;20263;-50
2022/04/30 08:16:19;;;;;;;16.23;12.07;;;9.60;99.90;;;;;;5070323;28;20236;-50
2022/04/30 08:18:47;;;;;;;14.67;11.60;;;9.60;99.90;;;;;;5070616;28;20212;-50
2022/04/30 08:21:15;;;;;;;17.80;11.20;;;9.60;99.90;;;;;;5069985;28;20267;-50
2022/04/30 08:23:44;;;;;;;14.30;12.10;;;9.50;99.90;;;;;;5069756;28;20269;-50
2022/04/30 08:26:12;;;;;;;15.63;11.63;;;9.40;99.90;;;;;;5069701;28;20225;-49
2022/04/30 08:28:40;;;;;;;15.03;11.67;;;9.50;99.90;;;;;;5070086;28;20835;-50
2022/04/30 08:31:09;;;;;;;14.83;11.23;;;9.40;99.90;;;;;;5069909;28;20278;-50
2022/04/30 08:33:38;;;;;;;17.57;11.43;;;9.40;99.90;;;;;;5073512;28;20216;-49
2022/04/30 08:36:06;;;;;;;14.33;11.50;;;9.60;99.90;;;;;;5074297;28;20220;-50
2022/04/30 08:38:34;;;;;;;16.33;11.23;;;9.60;99.90;;;;;;5074292;28;20618;-51
2022/04/30 08:41:03;;;;;;;13.87;11.50;;;9.80;99.90;;;;;;5074711;28;20568;-50
2022/04/30 08:43:33;;;;;;;13.77;11.37;;;9.70;99.90;;;;;;5073251;28;20206;-50
2022/04/30 08:46:02;;;;;;;13.13;11.33;;;9.70;99.90;;;;;;5073046;28;20642;-50
2022/04/30 08:48:32;;;;;;;14.60;11.37;;;9.70;99.90;;;;;;5073952;28;20675;-50
2022/04/30 08:51:02;;;;;;;14.67;11.30;;;9.60;99.90;;;;;;5073639;28;20731;-50
2022/04/30 08:53:30;;;;;;;17.53;11.60;;;9.80;99.90;;;;;;5073202;28;20211;-50
2022/04/30 08:55:59;;;;;;;15.83;11.47;;;9.80;99.90;;;;;;5072367;28;20226;-50
2022/04/30 08:58:27;;;;;;;14.50;11.27;;;9.80;99.90;;;;;;5072984;28;20266;-50
2022/04/30 09:00:55;;;;;;;15.20;11.53;;;9.90;99.90;;;;;;5074143;28;20216;-50
2022/04/30 09:03:23;;;;;;;13.90;11.53;;;10.10;99.90;;;;;;5071402;28;20265;-50
2022/04/30 09:05:52;;;;;;;15.67;11.20;;;10.20;99.90;;;;;;5073309;28;20266;-50
2022/04/30 09:08:20;;;;;;;13.50;10.83;;;10.30;99.90;;;;;;5074688;28;20262;-50
2022/04/30 09:10:49;;;;;;;14.50;10.40;;;10.40;99.90;;;;;;5073668;28;20689;-50
2022/04/30 09:13:18;;;;;;;12.20;10.00;;;10.40;99.90;;;;;;5073253;28;20204;-50
2022/04/30 09:15:55;;;;;;;13.73;10.20;;;10.50;99.90;;;;;;5073486;28;20232;-50
2022/04/30 09:18:25;;;;;;;15.37;9.87;;;10.50;99.90;;;;;;5073422;28;20231;-50
2022/04/30 09:20:55;;;;;;;11.00;9.83;;;10.50;99.90;;;;;;5073734;28;20213;-51
2022/04/30 09:23:25;;;;;;;14.87;11.17;;;10.60;99.90;;;;;;5072914;28;20318;-50
2022/04/30 09:25:55;;;;;;;14.63;10.33;;;10.60;99.90;;;;;;5073269;28;20316;-50
2022/04/30 09:28:24;;;;;;;14.60;10.47;;;10.50;99.90;;;;;;5073032;28;20205;-50
2022/04/30 09:31:03;;;;;;;15.03;11.20;;;10.40;99.90;;;;;;5072888;28;20204;-50
2022/04/30 09:33:32;;;;;;;14.37;9.80;;;10.50;99.90;;;;;;5072565;28;20216;-50
2022/04/30 09:38:50;;;;;;;11.70;10.37;;;10.30;99.90;;;;;;5066753;28;20206;-50
2022/04/30 09:41:23;;;;;;;17.00;11.47;;;10.20;99.90;;;;;;5071601;28;20626;-51
2022/04/30 09:44:04;;;;;;;15.27;11.40;;;10.30;99.90;;;;;;5071593;28;20213;-50
2022/04/30 09:46:35;;;;;;;12.47;10.23;;;10.20;99.90;;;;;;5072316;28;20233;-50
2022/04/30 09:54:37;;;;;;;12.30;11.00;;;10.20;99.90;;;;;;5069662;28;20209;-50
2022/04/30 09:57:07;;;;;;;16.07;11.53;;;10.30;99.90;;;;;;5072372;28;20278;-50
2022/04/30 09:59:37;;;;;;;14.03;11.53;;;10.50;99.90;;;;;;5071792;28;20208;-50
2022/04/30 10:02:06;;;;;;;16.07;11.63;;;10.50;99.90;;;;;;5068490;28;20208;-50
2022/04/30 10:04:35;;;;;;;15.40;11.60;;;10.50;99.90;;;;;;5072204;28;20211;-49
2022/04/30 10:07:06;;;;;;;13.90;11.50;;;10.50;99.90;;;;;;5072069;28;20248;-51
2022/04/30 10:09:38;;;;;;;17.40;12.33;;;10.50;99.90;;;;;;5070992;28;20634;-50
2022/04/30 10:12:11;;;;;;;13.73;11.37;;;10.50;99.90;;;;;;5071898;28;20205;-50
2022/04/30 10:14:51;;;;;;;15.50;11.27;;;10.50;99.90;;;;;;5072402;28;20641;-50
2022/04/30 10:17:23;;;;;;;16.27;12.10;;;10.60;99.90;;;;;;5072076;28;20591;-50
2022/04/30 10:19:59;;;;;;;19.67;13.00;;;10.70;99.90;;;;;;5072054;28;20238;-50
2022/04/30 10:22:29;;;;;;;18.10;11.70;;;10.70;99.90;;;;;;5072054;28;20231;-50
2022/04/30 10:24:59;;;;;;;15.03;11.93;;;10.80;99.90;;;;;;5072272;28;20228;-51
2022/04/30 10:27:41;;;;;;;16.63;11.13;;;10.90;99.90;;;;;;5071864;28;20236;-50
2022/04/30 10:30:19;;;;;;;12.23;10.47;;;11.00;99.90;;;;;;5072236;28;20205;-50
2022/04/30 10:33:00;;;;;;;16.57;10.63;;;11.00;99.90;;;;;;5071691;28;20257;-51
2022/04/30 10:35:30;;;;;;;14.23;11.50;;;11.20;99.90;;;;;;5069250;28;20282;-51
2022/04/30 10:38:12;;;;;;;16.03;11.20;;;11.20;99.90;;;;;;5070418;28;20646;-50
2022/04/30 10:40:42;;;;;;;16.13;12.07;;;11.20;99.90;;;;;;5066475;28;20225;-51
2022/04/30 10:43:18;;;;;;;14.67;11.47;;;11.20;99.90;;;;;;5069228;28;20208;-49
2022/04/30 10:45:46;;;;;;;13.50;10.50;;;11.30;99.90;;;;;;5072168;28;20221;-49
2022/04/30 10:48:16;;;;;;;14.97;10.70;;;11.30;99.90;;;;;;5071327;28;20233;-50
2022/04/30 10:50:45;;;;;;;13.00;10.40;;;11.20;99.90;;;;;;5072339;28;20270;-50
2022/04/30 10:53:16;;;;;;;13.73;10.80;;;11.30;99.90;;;;;;5071005;28;20217;-50
2022/04/30 10:55:44;;;;;;;16.47;11.50;;;11.30;99.90;;;;;;5065415;28;20649;-50
2022/04/30 10:58:15;;;;;;;14.47;11.17;;;11.30;99.90;;;;;;5092454;28;20631;-50
2022/04/30 11:00:43;;;;;;;19.87;11.27;;;11.30;99.90;;;;;;5074229;28;20213;-50
2022/04/30 11:03:12;;;;;;;15.43;11.60;;;11.40;99.90;;;;;;5067700;28;20314;-51
2022/04/30 11:05:42;;;;;;;17.00;11.80;;;11.30;99.90;;;;;;5070302;28;20224;-50
2022/04/30 11:08:10;;;;;;;14.80;11.40;;;11.30;99.90;;;;;;5073614;28;20610;-49
2022/04/30 11:10:50;;;;;;;15.73;11.50;;;11.40;99.90;;;;;;5072200;28;20890;-51
2022/04/30 11:13:19;;;;;;;13.37;10.87;;;11.40;99.90;;;;;;5070723;28;20270;-50
2022/04/30 11:15:48;;;;;;;15.17;11.73;;;11.50;99.90;;;;;;5071380;28;20228;-49
2022/04/30 11:18:19;;;;;;;15.40;12.40;;;11.30;99.90;;;;;;5071635;28;20205;-51
2022/04/30 11:20:48;;;;;;;17.13;10.97;;;11.30;99.90;;;;;;5071330;28;20693;-50
2022/04/30 11:23:25;;;;;;;16.77;13.73;;;11.30;99.90;;;;;;5070830;28;20259;-50
2022/04/30 11:25:55;;;;;;;15.37;11.43;;;11.40;99.90;;;;;;5071211;28;20236;-50
2022/04/30 11:28:30;;;;;;;13.80;11.23;;;11.40;99.90;;;;;;5070432;28;20638;-50
2022/04/30 11:31:00;;;;;;;15.00;11.33;;;11.60;99.90;;;;;;5071290;28;20189;-51
2022/04/30 11:33:37;;;;;;;14.43;10.90;;;11.70;99.90;;;;;;5070132;28;20208;-51
2022/04/30 11:36:06;;;;;;;13.20;10.50;;;11.80;99.90;;;;;;5066842;28;21040;-50
2022/04/30 11:38:34;;;;;;;16.00;11.90;;;11.90;99.90;;;;;;5069972;28;20767;-50
2022/04/30 11:41:07;;;;;;;16.50;10.60;;;11.90;99.90;;;;;;5070782;28;20212;-51
2022/04/30 11:43:36;;;;;;;15.83;11.80;;;12.00;99.90;;;;;;5070478;28;20223;-50
2022/04/30 11:46:04;;;;;;;12.63;11.00;;;12.10;99.90;;;;;;5069808;28;20679;-50
2022/04/30 11:48:38;;;;;;;15.67;11.63;;;12.00;99.90;;;;;;5070107;28;20289;-51
2022/04/30 11:51:11;;;;;;;15.93;11.80;;;11.90;99.90;;;;;;5070452;28;20213;-50
2022/04/30 11:53:40;;;;;;;14.63;10.33;;;11.80;99.90;;;;;;5069561;28;20267;-51
2022/04/30 11:56:10;;;;;;;15.70;11.13;;;11.60;99.90;;;;;;5069578;28;20307;-50
2022/04/30 11:58:42;;;;;;;15.53;11.80;;;11.70;99.90;;;;;;5069913;28;20208;-51
2022/04/30 12:01:22;;;;;;;19.60;11.17;;;11.70;99.90;;;;;;5070092;28;20208;-50
2022/04/30 12:03:55;;;;;;;13.00;10.27;;;11.90;99.90;;;;;;5069732;28;20213;-50
2022/04/30 12:06:25;;;;;;;17.23;11.47;;;11.90;99.90;;;;;;5066203;28;20290;-50
2022/04/30 12:08:54;;;;;;;17.73;12.33;;;11.70;99.90;;;;;;5069752;28;20221;-50
2022/04/30 12:11:24;;;;;;;19.30;11.50;;;11.60;99.90;;;;;;5066227;28;20262;-50
2022/04/30 12:14:03;;;;;;;15.60;11.67;;;11.60;99.90;;;;;;5069630;28;20224;-50
2022/04/30 12:16:36;;;;;;;13.60;11.87;;;11.50;99.90;;;;;;5066319;28;20224;-51
2022/04/30 12:24:49;;;;;;;16.33;11.50;;;11.50;99.90;;;;;;5068303;28;20208;-50
2022/04/30 12:27:23;;;;;;;14.57;11.10;;;11.40;99.90;;;;;;5069517;28;20232;-50
2022/04/30 12:30:01;;;;;;;15.70;11.40;;;11.40;99.90;;;;;;5062959;28;20201;-51
2022/04/30 12:32:30;;;;;;;17.23;11.97;;;11.30;99.90;;;;;;5060563;28;20208;-52
2022/04/30 12:34:58;;;;;;;18.23;11.57;;;11.20;99.90;;;;;;5069631;28;20212;-50
2022/04/30 12:37:34;;;;;;;16.83;11.67;;;11.20;99.90;;;;;;5069741;28;20228;-50
2022/04/30 12:40:10;;;;;;;20.70;11.73;;;11.20;99.90;;;;;;5069536;28;20700;-51
2022/04/30 12:42:40;;;;;;;14.83;12.10;;;11.20;99.90;;;;;;5065406;28;20627;-50
2022/04/30 12:45:09;;;;;;;16.13;11.63;;;11.20;99.90;;;;;;5062567;28;20286;-51
2022/04/30 12:47:37;;;;;;;17.37;12.13;;;11.30;99.90;;;;;;5069199;28;20201;-52
2022/04/30 12:50:06;;;;;;;15.67;11.93;;;11.30;99.90;;;;;;5069004;28;20216;-51
2022/04/30 12:52:34;;;;;;;16.60;13.43;;;11.20;99.90;;;;;;5068783;28;20873;-51
2022/04/30 12:55:03;;;;;;;18.07;11.90;;;11.30;99.90;;;;;;5069214;28;20201;-51
2022/04/30 12:57:31;;;;;;;15.23;11.33;;;11.40;99.90;;;;;;5068723;28;20209;-51
2022/04/30 13:00:01;;;;;;;19.53;12.27;;;11.50;99.90;;;;;;5067413;28;20422;-50
2022/04/30 13:02:30;;;;;;;17.90;11.67;;;11.50;99.90;;;;;;5069008;28;20205;-51
2022/04/30 13:04:58;;;;;;;15.70;12.03;;;11.50;99.90;;;;;;5066430;28;20698;-51
2022/04/30 13:07:27;;;;;;;20.70;16.03;;;11.40;99.90;;;;;;5068226;28;20208;-50
2022/04/30 13:15:30;;;;;;;15.73;11.60;;;11.10;99.90;;;;;;5069446;28;20713;-51
2022/04/30 13:17:58;;;;;;;18.23;12.23;;;11.00;99.90;;;;;;5067988;28;20205;-50
2022/04/30 13:20:27;;;;;;;19.03;10.60;;;11.10;99.90;;;;;;5067798;28;20194;-50
2022/04/30 13:22:56;;;;;;;19.37;11.23;;;11.20;99.90;;;;;;5072251;28;20209;-51
2022/04/30 13:25:25;;;;;;;15.17;11.77;;;11.20;99.90;;;;;;5072320;28;20224;-51
2022/04/30 13:27:53;;;;;;;17.03;11.33;;;11.30;99.90;;;;;;5073301;28;20205;-51
2022/04/30 13:30:21;;;;;;;16.97;11.80;;;11.20;99.90;;;;;;5072732;28;20699;-50